Flight Track Log - Related Links

Times and Time Zones

All times are in EST time to prevent confusion due to time zone crossing. See the AFL150 flight status page for this flight to view local times or setup timezone preferences in your user account.

Time Position Orientation Groundspeed Altitude Reporting Facility
EST Latitude Longitude Course Direction KTS MPH feet Rate Location/Type
Fri 07:42:25 AM 56.5243 4.3409 265° West 466 536 36,000  Level FlightAware UK
Fri 07:43:01 AM 56.5183 4.2276 265° West 466 536 36,000  Level FlightAware UK
Fri 07:43:55 AM 56.5091 4.0574 265° West 462 532 36,000  Level FlightAware UK
Fri 07:44:31 AM 56.5016 3.9465 263° West 462 532 36,000  Level FlightAware UK
Fri 07:45:13 AM 56.4924 3.8176 263° West 460 529 36,000  Level FlightAware UK
Fri 07:46:01 AM 56.4814 3.6712 262° West 464 534 36,000  Level FlightAware UK
Fri 07:47:31 AM 56.4613 3.3973 263° West 464 534 36,000  Level FlightAware UK
Fri 07:48:01 AM 56.4546 3.3063 262° West 464 534 36,000  Level FlightAware UK
Fri 07:48:31 AM 56.4476 3.2156 262° West 466 536 36,000  Level FlightAware UK
Fri 07:49:01 AM 56.4406 3.1254 262° West 464 534 36,000  Level FlightAware UK
Fri 07:49:37 AM 56.4322 3.0186 262° West 462 532 36,000  Level FlightAware UK
Fri 07:50:13 AM 56.4239 2.9135 262° West 464 534 36,000  Level FlightAware UK
Fri 07:50:49 AM 56.4156 2.8097 262° West 462 532 36,000  Level FlightAware UK
Fri 07:51:19 AM 56.4088 2.7225 262° West 464 534 36,000  Level FlightAware UK
Fri 07:51:49 AM 56.4017 2.6357 262° West 464 534 36,000  Level FlightAware UK
Fri 07:52:19 AM 56.3945 2.5496 262° West 464 534 36,000  Level FlightAware UK
Fri 07:52:55 AM 56.3862 2.4481 262° West 462 532 36,000  Level FlightAware UK
Fri 07:53:43 AM 56.3751 2.3153 261° West 460 529 36,000  Level FlightAware UK
Fri 07:54:19 AM 56.3666 2.2146 261° West 460 529 36,000  Level FlightAware UK
Fri 07:55:01 AM 56.3566 2.0975 261° West 460 529 36,000  Level FlightAware UK
Fri 07:55:31 AM 56.3493 2.0138 261° West 462 532 36,000  Level FlightAware UK
Fri 07:56:42 AM 56.3318 1.8149 261° West 460 529 36,000  Level FlightAware UK
Fri 07:57:12 AM 56.3245 1.7327 261° West 460 529 36,000  Level FlightAware UK
Fri 07:57:54 AM 56.3145 1.6190 261° West 458 527 36,000  Level FlightAware UK
Fri 07:58:24 AM 56.3072 1.5369 261° West 458 527 36,000  Level FlightAware UK
Fri 07:59:12 AM 56.2951 1.4053 261° West 460 529 36,000  Level FlightAware UK
Fri 08:00:30 AM 56.2754 1.1912 261° West 458 527 36,000  Level FlightAware UK
Fri 08:01:00 AM 56.2676 1.1079 260° West 460 529 36,000  Level FlightAware UK
Fri 08:01:30 AM 56.2596 1.0239 260° West 460 529 36,000  Level FlightAware UK
Fri 08:02:06 AM 56.2500 0.9226 260° West 460 529 36,000  Level FlightAware UK
Fri 08:03:00 AM 56.2353 0.7710 260° West 462 532 36,000  Level FlightAware UK
Fri 08:03:36 AM 56.2255 0.6693 260° West 462 532 36,000  Level FlightAware UK
Fri 08:04:54 AM 56.2035 0.4458 260° West 462 532 36,000  Level FlightAware UK
Fri 08:05:24 AM 56.1949 0.3594 260° West 462 532 36,000  Level FlightAware UK
Fri 08:06:06 AM 56.1825 0.2383 260° West 464 534 36,000  Level FlightAware UK
Fri 08:06:41 AM 56.1718 0.1352 260° West 462 532 36,000  Level FlightAware UK
Fri 08:07:23 AM 56.1594 0.0148 260° West 460 529 36,000  Level FlightAware UK
Fri 08:08:05 AM 56.1470 -0.1045 259° West 458 527 36,000  Level FlightAware UK
Fri 08:08:47 AM 56.1346 -0.2244 260° West 460 529 36,000  Level FlightAware UK
Fri 08:09:41 AM 56.1180 -0.3796 259° West 462 532 36,000  Level FlightAware UK
Fri 08:11:05 AM 56.0914 -0.6256 259° West 464 534 36,000  Level FlightAware UK
Fri 08:11:35 AM 56.0817 -0.7138 259° West 462 532 36,000  Level FlightAware UK
Fri 08:12:17 AM 56.0682 -0.8369 259° West 462 532 36,000  Level FlightAware UK
Fri 08:12:53 AM 56.0563 -0.9428 259° West 460 529 36,000  Level FlightAware UK
Fri 08:13:29 AM 56.0443 -1.0489 259° West 460 529 36,000  Level FlightAware UK
Fri 08:14:05 AM 56.0323 -1.1540 259° West 460 529 36,000  Level FlightAware UK
Fri 08:14:46 AM 56.0183 -1.2770 259° West 460 529 36,000  Level FlightAware UK
Fri 08:16:34 AM 55.9811 -1.5964 258° West 460 529 36,000  Level FlightAware UK
Fri 08:17:22 AM 55.9644 -1.7382 258° West 460 529 36,000  Level FlightAware UK
Fri 08:17:58 AM 55.9516 -1.8450 258° West 460 529 36,000  Level FlightAware UK
Fri 08:18:46 AM 55.9345 -1.9873 258° West 462 532 36,000  Level FlightAware UK
Fri 08:19:22 AM 55.9213 -2.0955 258° West 462 532 36,000  Level FlightAware UK
Fri 08:20:10 AM 55.9034 -2.2403 258° West 462 532 36,000  Level FlightAware UK
Fri 08:20:40 AM 55.8922 -2.3308 258° West 462 532 36,000  Level FlightAware UK
Fri 08:21:52 AM 55.8651 -2.5478 258° West 462 532 36,000  Level FlightAware UK
Fri 08:22:46 AM 55.8446 -2.7105 257° West 464 534 36,000  Level FlightAware UK
Fri 08:23:40 AM 55.8236 -2.8734 257° West 462 532 36,000  Level FlightAware UK
Fri 08:24:10 AM 55.8119 -2.9633 257° West 462 532 36,000  Level FlightAware UK
Fri 08:24:45 AM 55.7980 -3.0703 257° West 462 532 36,000  Level FlightAware UK
Fri 08:25:33 AM 55.7791 -3.2133 257° West 460 529 36,000  Level FlightAware UK
Fri 08:26:21 AM 55.7602 -3.3559 257° West 460 529 36,000  Level FlightAware UK
Fri 08:26:51 AM 55.7484 -3.4452 257° West 460 529 36,000  Level FlightAware UK
Fri 08:27:39 AM 55.7292 -3.5878 257° West 460 529 36,000  Level FlightAware UK
Fri 08:28:15 AM 55.7146 -3.6953 256° West 460 529 36,000  Level FlightAware UK
Fri 08:28:45 AM 55.7024 -3.7849 256° West 458 527 36,000  Level FlightAware UK
Fri 08:29:15 AM 55.6899 -3.8748 256° West 458 527 36,000  Level FlightAware UK
Fri 08:29:45 AM 55.6774 -3.9649 256° West 462 532 36,000  Level FlightAware UK
Fri 08:30:15 AM 55.6648 -4.0555 256° West 462 532 36,000  Level FlightAware UK
Fri 08:31:15 AM 55.6393 -4.2365 256° West 462 532 36,000  Level FlightAware UK
Fri 08:32:03 AM 55.6189 -4.3817 256° West 462 532 36,000  Level FlightAware UK
Fri 08:33:09 AM 55.5902 -4.5802 256° West 460 529 36,000  Level FlightAware UK
Fri 08:33:45 AM 55.5746 -4.6878 256° West 460 529 36,000  Level FlightAware UK
Fri 08:34:21 AM 55.5589 -4.7956 256° West 458 527 36,000  Level FlightAware UK
Fri 08:34:57 AM 55.5429 -4.9036 255° West 458 527 36,000  Level FlightAware UK
Fri 08:35:33 AM 55.5268 -5.0124 255° West 458 527 36,000  Level FlightAware UK
Fri 08:36:03 AM 55.5006 -5.0976 242° Southwest 458 527 36,000  Level FlightAware UK
Fri 08:36:33 AM 55.4572 -5.1668 222° Southwest 460 529 36,000  Level FlightAware UK
Fri 08:37:09 AM 55.4022 -5.2452 219° Southwest 464 534 36,000  Level FlightAware UK
Fri 08:37:39 AM 55.3561 -5.3108 219° Southwest 460 529 36,000  Level FlightAware UK
Fri 08:38:21 AM 55.2916 -5.4019 219° Southwest 460 529 36,000  Level FlightAware UK
Fri 08:38:51 AM 55.2455 -5.4669 219° Southwest 462 532 36,000  Level FlightAware UK
Fri 08:39:21 AM 55.1994 -5.5318 219° Southwest 460 529 36,000  Level FlightAware UK
Fri 08:39:51 AM 55.1533 -5.5965 219° Southwest 460 529 36,000  Level FlightAware UK
Fri 08:40:27 AM 55.0980 -5.6742 219° Southwest 458 527 36,000  Level FlightAware UK
Fri 08:40:57 AM 55.0517 -5.7387 219° Southwest 460 529 36,000  Level FlightAware UK
Fri 08:41:27 AM 55.0052 -5.8031 219° Southwest 462 532 36,000  Level FlightAware UK
Fri 08:41:57 AM 54.9587 -5.8676 219° Southwest 460 529 36,000  Level FlightAware UK
Fri 08:42:45 AM 54.8841 -5.9706 218° Southwest 458 527 36,000  Level FlightAware UK
Fri 08:43:15 AM 54.8375 -6.0349 218° Southwest 458 527 36,000  Level FlightAware UK
Fri 08:43:45 AM 54.7908 -6.0997 219° Southwest 460 529 36,000  Level FlightAware UK
Fri 08:44:21 AM 54.7346 -6.1774 219° Southwest 462 532 36,000  Level FlightAware UK
Fri 08:44:51 AM 54.6869 -6.2414 218° Southwest 462 532 36,000  Level FlightAware UK
Fri 08:45:21 AM 54.6394 -6.3044 218° Southwest 460 529 36,000  Level FlightAware UK
Fri 08:45:51 AM 54.5924 -6.3680 218° Southwest 462 532 36,000  Level FlightAware UK
Fri 08:46:33 AM 54.5263 -6.4578 218° Southwest 462 532 36,000  Level FlightAware UK
Fri 08:47:03 AM 54.4791 -6.5214 218° Southwest 460 529 36,000  Level FlightAware UK
Fri 08:47:33 AM 54.4318 -6.5847 218° Southwest 462 532 36,000  Level FlightAware UK
Fri 08:48:03 AM 54.3884 -6.6529 222° Southwest 458 527 36,000  Level FlightAware UK
Fri 08:48:45 AM 54.3480 -6.7702 239° Southwest 456 525 36,000  Level FlightAware UK
Fri 08:49:15 AM 54.3189 -6.8540 239° Southwest 458 527 36,000  Level FlightAware UK
Fri 08:49:45 AM 54.2898 -6.9381 239° Southwest 456 525 36,000  Level FlightAware UK
Fri 08:50:15 AM 54.2607 -7.0224 239° Southwest 460 529 36,000  Level FlightAware UK
Fri 08:50:45 AM 54.2314 -7.1070 239° Southwest 462 532 36,000  Level FlightAware UK
Fri 08:51:15 AM 54.2019 -7.1916 239° Southwest 462 532 36,000  Level FlightAware UK
Fri 08:51:45 AM 54.1725 -7.2762 239° Southwest 462 532 36,000  Level FlightAware UK
Fri 08:52:20 AM 54.1370 -7.3768 239° Southwest 462 532 36,000  Level FlightAware UK
Fri 08:52:50 AM 54.1071 -7.4608 239° Southwest 462 532 36,000  Level FlightAware UK
Fri 08:53:20 AM 54.0774 -7.5449 239° Southwest 460 529 36,000  Level FlightAware UK
Fri 08:53:50 AM 54.0475 -7.6290 239° Southwest 460 529 36,000  Level FlightAware UK
Fri 08:54:20 AM 54.0176 -7.7128 239° Southwest 460 529 36,000  Level FlightAware UK
Fri 08:54:50 AM 53.9878 -7.7969 239° Southwest 462 532 36,000  Level FlightAware UK
Fri 08:55:20 AM 53.9576 -7.8805 239° Southwest 460 529 36,000  Level FlightAware UK
Fri 08:55:50 AM 53.9275 -7.9642 239° Southwest 458 527 36,000  Level FlightAware UK
Fri 08:56:20 AM 53.8973 -8.0478 239° Southwest 458 527 36,000  Level FlightAware UK
Fri 08:56:50 AM 53.8670 -8.1313 238° Southwest 458 527 36,000  Level FlightAware UK
Fri 08:57:20 AM 53.8367 -8.2149 238° Southwest 460 529 36,000 -400 Level FlightAware UK
Fri 08:57:50 AM 53.8062 -8.2988 238° Southwest 462 532 35,600 -900 Descending FlightAware UK
Fri 08:58:20 AM 53.7752 -8.3829 238° Southwest 464 534 35,100 -600 Descending FlightAware UK
Fri 08:58:50 AM 53.7442 -8.4671 238° Southwest 462 532 35,000 -91 Descending FlightAware UK
Fri 08:59:26 AM 53.7076 -8.5665 238° Southwest 460 529 35,000  Level FlightAware UK
Fri 08:59:56 AM 53.6769 -8.6495 238° Southwest 462 532 35,000  Level FlightAware UK
Fri 09:00:26 AM 53.6461 -8.7328 238° Southwest 462 532 35,000  Level FlightAware UK
Fri 09:00:56 AM 53.6151 -8.8158 238° Southwest 460 529 35,000  Level FlightAware UK
Fri 09:01:26 AM 53.5841 -8.8987 238° Southwest 462 532 35,000  Level FlightAware UK
Fri 09:01:56 AM 53.5532 -8.9814 238° Southwest 462 532 35,000 -57 Level FlightAware UK
Fri 09:03:00 AM 53.5569 -9.2778 271° West  Level Estimated
Fri 09:10:00 AM 53.5636 -11.2234 271° West  Level Estimated
Fri 09:11:00 AM 53.5620 -11.5014 270° West  Level Estimated
Fri 09:12:00 AM 53.5597 -11.7793 269° West  Level Estimated
Fri 09:13:00 AM 53.5568 -12.0572 269° West  Level Estimated
Fri 09:14:00 AM 53.5532 -12.3351 269° West  Level Estimated
Fri 09:15:00 AM 53.5490 -12.6129 269° West  Level Estimated
Fri 09:16:00 AM 53.5442 -12.8906 268° West  Level Estimated
Fri 09:17:00 AM 53.5387 -13.1683 268° West  Level Estimated
Fri 09:18:00 AM 53.5325 -13.4459 268° West  Level Estimated
Fri 09:19:00 AM 53.5258 -13.7234 268° West  Level Estimated
Fri 09:20:00 AM 53.5183 -14.0008 268° West  Level Estimated
Fri 09:21:00 AM 53.5103 -14.2781 267° West  Level Estimated
Fri 09:22:00 AM 53.5016 -14.5553 267° West  Level Estimated
Fri 09:23:00 AM 53.4922 -14.8324 267° West  Level Estimated
Fri 09:24:00 AM 53.4823 -15.1094 267° West  Level Estimated
Fri 09:25:00 AM 53.4716 -15.3862 266° West  Level Estimated
Fri 09:26:00 AM 53.4604 -15.6629 266° West  Level Estimated
Fri 09:27:00 AM 53.4485 -15.9394 266° West  Level Estimated
Fri 09:28:00 AM 53.4359 -16.2158 266° West  Level Estimated
Fri 09:29:00 AM 53.4228 -16.4920 266° West  Level Estimated
Fri 09:30:00 AM 53.4090 -16.7681 265° West  Level Estimated
Fri 09:31:00 AM 53.3945 -17.0439 265° West  Level Estimated
Fri 09:32:00 AM 53.3794 -17.3196 265° West  Level Estimated
Fri 09:33:00 AM 53.3637 -17.5950 265° West  Level Estimated
Fri 09:34:00 AM 53.3473 -17.8703 264° West  Level Estimated
Fri 09:35:00 AM 53.3303 -18.1453 264° West  Level Estimated
Fri 09:36:00 AM 53.3127 -18.4201 264° West  Level Estimated
Fri 09:37:00 AM 53.2945 -18.6947 264° West  Level Estimated
Fri 09:38:00 AM 53.2756 -18.9690 264° West  Level Estimated
Fri 09:39:00 AM 53.2561 -19.2432 263° West  Level Estimated
Fri 09:40:00 AM 53.2360 -19.5170 263° West  Level Estimated
Fri 09:41:00 AM 53.2152 -19.7906 263° West  Level Estimated
Fri 09:42:00 AM 53.1938 -20.0639 263° West  Level Estimated
Fri 09:43:00 AM 53.1718 -20.3369 262° West  Level Estimated
Fri 09:44:00 AM 53.1492 -20.6097 262° West  Level Estimated
Fri 09:45:00 AM 53.1259 -20.8821 262° West  Level Estimated
Fri 09:46:00 AM 53.1020 -21.1543 262° West  Level Estimated
Fri 09:47:00 AM 53.0775 -21.4261 262° West  Level Estimated
Fri 09:48:00 AM 53.0524 -21.6977 261° West  Level Estimated
Fri 09:49:00 AM 53.0266 -21.9689 261° West  Level Estimated
Fri 09:50:00 AM 53.0003 -22.2398 261° West  Level Estimated
Fri 09:51:00 AM 52.9733 -22.5104 261° West  Level Estimated
Fri 09:52:00 AM 52.9458 -22.7806 260° West  Level Estimated
Fri 09:53:00 AM 52.9176 -23.0505 260° West  Level Estimated
Fri 09:54:00 AM 52.8888 -23.3200 260° West  Level Estimated
Fri 09:55:00 AM 52.8593 -23.5891 260° West  Level Estimated
Fri 09:56:00 AM 52.8293 -23.8579 260° West  Level Estimated
Fri 09:57:00 AM 52.7987 -24.1263 259° West  Level Estimated
Fri 09:58:00 AM 52.7675 -24.3944 259° West  Level Estimated
Fri 09:59:00 AM 52.7356 -24.6620 259° West  Level Estimated
Fri 10:00:00 AM 52.7032 -24.9293 259° West  Level Estimated
Fri 10:01:00 AM 52.6702 -25.1961 259° West  Level Estimated
Fri 10:02:00 AM 52.6365 -25.4625 258° West  Level Estimated
Fri 10:03:00 AM 52.6023 -25.7286 258° West  Level Estimated
Fri 10:04:00 AM 52.5675 -25.9942 258° West  Level Estimated
Fri 10:05:00 AM 52.5320 -26.2594 258° West  Level Estimated
Fri 10:06:00 AM 52.4960 -26.5241 258° West  Level Estimated
Fri 10:07:00 AM 52.4594 -26.7884 257° West  Level Estimated
Fri 10:08:00 AM 52.4222 -27.0523 257° West  Level Estimated
Fri 10:09:00 AM 52.3844 -27.3157 257° West  Level Estimated
Fri 10:10:00 AM 52.3461 -27.5787 257° West  Level Estimated
Fri 10:11:00 AM 52.3072 -27.8412 256° West  Level Estimated
Fri 10:11:00 AM 49.0000 -20.0000 243° Southwest 458 527 31,000  Level ETMS Enhanced Traffic Management System
Fri 10:12:00 AM 52.2676 -28.1033 256° West  Level Estimated
Fri 10:13:00 AM 52.2275 -28.3648 256° West  Level Estimated
Fri 10:14:00 AM 52.1869 -28.6259 256° West  Level Estimated
Fri 10:15:00 AM 52.1456 -28.8866 256° West  Level Estimated
Fri 10:16:00 AM 52.1038 -29.1467 255° West  Level Estimated
Fri 10:17:00 AM 48.6524 -21.0339 243° Southwest 458 527 31,000  Level FlightAware Transoceanic
Fri 10:18:00 AM 48.5936 -21.2048 242° Southwest 458 527 31,000  Level FlightAware Transoceanic
Fri 10:19:00 AM 48.5345 -21.3753 242° Southwest 458 527 31,000  Level FlightAware Transoceanic
Fri 10:20:00 AM 48.4752 -21.5454 242° Southwest 458 527 31,000  Level FlightAware Transoceanic
Fri 10:21:00 AM 48.4157 -21.7152 242° Southwest 458 527 31,000  Level FlightAware Transoceanic
Fri 10:22:00 AM 48.3558 -21.8845 242° Southwest 458 527 31,000  Level FlightAware Transoceanic
Fri 10:23:00 AM 48.2958 -22.0534 242° Southwest 458 527 31,000  Level FlightAware Transoceanic
Fri 10:24:00 AM 48.2355 -22.2219 242° Southwest 458 527 31,000  Level FlightAware Transoceanic
Fri 10:25:00 AM 48.1749 -22.3901 242° Southwest 458 527 31,000  Level FlightAware Transoceanic
Fri 10:26:00 AM 48.1141 -22.5578 241° Southwest 458 527 31,000  Level FlightAware Transoceanic
Fri 10:27:00 AM 48.0530 -22.7251 241° Southwest 458 527 31,000  Level FlightAware Transoceanic
Fri 10:28:00 AM 47.9917 -22.8921 241° Southwest 458 527 31,000  Level FlightAware Transoceanic
Fri 10:29:00 AM 47.9302 -23.0586 241° Southwest 458 527 31,000  Level FlightAware Transoceanic
Fri 10:30:00 AM 47.8684 -23.2248 241° Southwest 458 527 31,000  Level FlightAware Transoceanic
Fri 10:31:00 AM 47.8064 -23.3905 241° Southwest 458 527 31,000  Level FlightAware Transoceanic
Fri 10:32:00 AM 47.7442 -23.5559 241° Southwest 458 527 31,000  Level FlightAware Transoceanic
Fri 10:33:00 AM 47.6817 -23.7208 241° Southwest 458 527 31,000  Level FlightAware Transoceanic
Fri 10:34:00 AM 47.6189 -23.8854 240° Southwest 458 527 31,000  Level FlightAware Transoceanic
Fri 10:35:00 AM 47.5560 -24.0496 240° Southwest 458 527 31,000  Level FlightAware Transoceanic
Fri 10:36:00 AM 47.4928 -24.2134 240° Southwest 458 527 31,000  Level FlightAware Transoceanic
Fri 10:37:00 AM 47.4294 -24.3767 240° Southwest 458 527 31,000  Level FlightAware Transoceanic
Fri 10:38:00 AM 47.3657 -24.5397 240° Southwest 458 527 31,000  Level FlightAware Transoceanic
Fri 10:39:00 AM 47.3018 -24.7023 240° Southwest 458 527 31,000  Level FlightAware Transoceanic
Fri 10:40:00 AM 47.2377 -24.8645 240° Southwest 458 527 31,000  Level FlightAware Transoceanic
Fri 10:41:00 AM 47.1734 -25.0263 240° Southwest 458 527 31,000  Level FlightAware Transoceanic
Fri 10:42:00 AM 47.1088 -25.1877 239° Southwest 458 527 31,000  Level FlightAware Transoceanic
Fri 10:43:00 AM 47.0440 -25.3487 239° Southwest 458 527 31,000  Level FlightAware Transoceanic
Fri 10:44:00 AM 46.9790 -25.5094 239° Southwest 458 527 31,000  Level FlightAware Transoceanic
Fri 10:45:00 AM 46.9137 -25.6696 239° Southwest 458 527 31,000  Level FlightAware Transoceanic
Fri 10:46:00 AM 46.8483 -25.8295 239° Southwest 458 527 31,000  Level FlightAware Transoceanic
Fri 10:47:00 AM 46.7826 -25.9889 239° Southwest 458 527 31,000  Level FlightAware Transoceanic
Fri 10:48:00 AM 46.7166 -26.1480 239° Southwest 458 527 31,000  Level FlightAware Transoceanic
Fri 10:49:00 AM 46.6505 -26.3067 239° Southwest 458 527 31,000  Level FlightAware Transoceanic
Fri 10:50:00 AM 46.5841 -26.4650 239° Southwest 458 527 31,000  Level FlightAware Transoceanic
Fri 10:51:00 AM 46.5176 -26.6229 238° Southwest 458 527 31,000  Level FlightAware Transoceanic
Fri 10:52:00 AM 46.4508 -26.7804 238° Southwest 458 527 31,000  Level FlightAware Transoceanic
Fri 10:53:00 AM 46.3838 -26.9375 238° Southwest 458 527 31,000  Level FlightAware Transoceanic
Fri 10:54:00 AM 46.3166 -27.0942 238° Southwest 458 527 31,000  Level FlightAware Transoceanic
Fri 10:55:00 AM 46.2491 -27.2506 238° Southwest 458 527 31,000  Level FlightAware Transoceanic
Fri 10:56:00 AM 46.1815 -27.4066 238° Southwest 458 527 31,000  Level FlightAware Transoceanic
Fri 10:57:00 AM 46.1136 -27.5622 238° Southwest 458 527 31,000  Level FlightAware Transoceanic
Fri 10:58:00 AM 46.0456 -27.7174 238° Southwest 458 527 31,000  Level FlightAware Transoceanic
Fri 10:59:00 AM 45.9773 -27.8722 238° Southwest 458 527 31,000  Level FlightAware Transoceanic
Fri 11:00:00 AM 45.9088 -28.0267 237° Southwest 458 527 31,000  Level FlightAware Transoceanic
Fri 11:01:00 AM 45.8401 -28.1807 237° Southwest 458 527 31,000  Level FlightAware Transoceanic
Fri 11:02:00 AM 45.7712 -28.3344 237° Southwest 458 527 31,000  Level FlightAware Transoceanic
Fri 11:03:00 AM 45.7021 -28.4877 237° Southwest 458 527 31,000  Level FlightAware Transoceanic
Fri 11:04:00 AM 45.6328 -28.6406 237° Southwest 458 527 31,000  Level FlightAware Transoceanic
Fri 11:05:00 AM 45.5633 -28.7932 237° Southwest 458 527 31,000  Level FlightAware Transoceanic
Fri 11:06:00 AM 45.4936 -28.9453 237° Southwest 458 527 31,000  Level FlightAware Transoceanic
Fri 11:07:00 AM 45.4237 -29.0971 237° Southwest 458 527 31,000  Level FlightAware Transoceanic
Fri 11:08:00 AM 45.3536 -29.2485 237° Southwest 458 527 31,000  Level FlightAware Transoceanic
Fri 11:09:00 AM 45.2832 -29.3996 236° Southwest 458 527 31,000  Level FlightAware Transoceanic
Fri 11:10:00 AM 45.2127 -29.5502 236° Southwest 458 527 31,000  Level FlightAware Transoceanic
Fri 11:11:00 AM 45.1420 -29.7005 236° Southwest 458 527 31,000  Level FlightAware Transoceanic
Fri 11:12:00 AM 45.0711 -29.8505 236° Southwest 458 527 31,000  Level FlightAware Transoceanic
Fri 11:13:00 AM 44.9789 -30.0442 236° Southwest  Level FlightAware Approximate
Fri 11:14:00 AM 44.9754 -30.1008 251° West  Level FlightAware Approximate
Fri 11:15:00 AM 44.9212 -30.3212 251° West  Level FlightAware Approximate
Fri 11:16:00 AM 44.8667 -30.5412 251° West  Level FlightAware Approximate
Fri 11:17:00 AM 44.8117 -30.7607 251° West  Level FlightAware Approximate
Fri 11:18:00 AM 44.7563 -30.9798 250° West  Level FlightAware Approximate
Fri 11:19:00 AM 44.7005 -31.1985 250° West  Level FlightAware Approximate
Fri 11:20:00 AM 44.6442 -31.4168 250° West  Level FlightAware Approximate
Fri 11:21:00 AM 44.5875 -31.6346 250° West  Level FlightAware Approximate
Fri 11:22:00 AM 44.5305 -31.8520 250° West  Level FlightAware Approximate
Fri 11:23:00 AM 44.4730 -32.0690 250° West  Level FlightAware Approximate
Fri 11:24:00 AM 44.4151 -32.2856 250° West  Level FlightAware Approximate
Fri 11:25:00 AM 44.3568 -32.5017 249° West  Level FlightAware Approximate
Fri 11:26:00 AM 44.2981 -32.7174 249° West  Level FlightAware Approximate
Fri 11:27:00 AM 44.2389 -32.9327 249° West  Level FlightAware Approximate
Fri 11:28:00 AM 44.1794 -33.1475 249° West  Level FlightAware Approximate
Fri 11:29:00 AM 44.1195 -33.3619 249° West  Level FlightAware Approximate
Fri 11:30:00 AM 44.0592 -33.5759 249° West  Level FlightAware Approximate
Fri 11:31:00 AM 43.9985 -33.7894 248° West  Level FlightAware Approximate
Fri 11:32:00 AM 43.9374 -34.0025 248° West  Level FlightAware Approximate
Fri 11:33:00 AM 43.8758 -34.2151 248° West  Level FlightAware Approximate
Fri 11:34:00 AM 43.8139 -34.4273 248° West  Level FlightAware Approximate
Fri 11:35:00 AM 43.7516 -34.6391 248° West  Level FlightAware Approximate
Fri 11:36:00 AM 43.6889 -34.8504 248° West  Level FlightAware Approximate
Fri 11:37:00 AM 43.6259 -35.0613 248° West  Level FlightAware Approximate
Fri 11:38:00 AM 43.5624 -35.2718 247° West  Level FlightAware Approximate
Fri 11:39:00 AM 43.4986 -35.4818 247° West  Level FlightAware Approximate
Fri 11:40:00 AM 43.4343 -35.6913 247° West  Level FlightAware Approximate
Fri 11:41:00 AM 43.3697 -35.9004 247° West  Level FlightAware Approximate
Fri 11:42:00 AM 43.3047 -36.1091 247° West  Level FlightAware Approximate
Fri 11:43:00 AM 43.2394 -36.3173 247° West  Level FlightAware Approximate
Fri 11:44:00 AM 43.1736 -36.5251 247° West  Level FlightAware Approximate
Fri 11:45:00 AM 43.1075 -36.7324 246° West  Level FlightAware Approximate
Fri 11:46:00 AM 43.0410 -36.9393 246° West  Level FlightAware Approximate
Fri 11:47:00 AM 42.9741 -37.1457 246° West  Level FlightAware Approximate
Fri 11:48:00 AM 42.9069 -37.3517 246° West  Level FlightAware Approximate
Fri 11:49:00 AM 42.8393 -37.5572 246° West  Level FlightAware Approximate
Fri 11:50:00 AM 42.7713 -37.7622 246° West  Level FlightAware Approximate
Fri 11:51:00 AM 42.7030 -37.9669 246° West  Level FlightAware Approximate
Fri 11:52:00 AM 42.6343 -38.1710 245° Southwest  Level FlightAware Approximate
Fri 11:53:00 AM 42.5652 -38.3748 245° Southwest  Level FlightAware Approximate
Fri 11:54:00 AM 42.4958 -38.5780 245° Southwest  Level FlightAware Approximate
Fri 11:55:00 AM 42.4260 -38.7808 245° Southwest  Level FlightAware Approximate
Fri 11:56:00 AM 42.3559 -38.9832 245° Southwest  Level FlightAware Approximate
Fri 11:57:00 AM 42.2860 -39.1855 245° Southwest  Level FlightAware Approximate
Fri 11:58:00 AM 42.2159 -39.3874 245° Southwest  Level FlightAware Approximate
Fri 11:59:00 AM 42.1454 -39.5889 245° Southwest  Level FlightAware Approximate
Fri 12:00:00 PM 42.0746 -39.7899 245° Southwest  Level FlightAware Approximate
Fri 12:01:00 PM 42.0034 -39.9905 245° Southwest  Level FlightAware Approximate
Fri 12:02:00 PM 41.9504 -40.2007 252° West  Level FlightAware Approximate
Fri 12:03:00 PM 41.8979 -40.4111 252° West  Level FlightAware Approximate
Fri 12:04:00 PM 41.8450 -40.6211 251° West  Level FlightAware Approximate
Fri 12:05:00 PM 41.7918 -40.8308 251° West  Level FlightAware Approximate
Fri 12:06:00 PM 41.7382 -41.0402 251° West  Level FlightAware Approximate
Fri 12:07:00 PM 41.6842 -41.2492 251° West  Level FlightAware Approximate
Fri 12:08:00 PM 41.6298 -41.4578 251° West  Level FlightAware Approximate
Fri 12:09:00 PM 41.5750 -41.6661 251° West  Level FlightAware Approximate
Fri 12:10:00 PM 41.5199 -41.8740 251° West  Level FlightAware Approximate
Fri 12:11:00 PM 41.4644 -42.0816 250° West  Level FlightAware Approximate
Fri 12:12:00 PM 41.4085 -42.2888 250° West  Level FlightAware Approximate
Fri 12:13:00 PM 41.3523 -42.4957 250° West  Level FlightAware Approximate
Fri 12:14:00 PM 41.2956 -42.7022 250° West  Level FlightAware Approximate
Fri 12:15:00 PM 41.2387 -42.9083 250° West  Level FlightAware Approximate
Fri 12:16:00 PM 41.1813 -43.1141 250° West  Level FlightAware Approximate
Fri 12:17:00 PM 41.1236 -43.3195 250° West  Level FlightAware Approximate
Fri 12:17:33 PM 42.0000 -40.0000 252° West 466 536 31,000  Level New York Oceanic (ODAPS)
Fri 12:18:00 PM 41.0655 -43.5246 249° West  Level FlightAware Approximate
Fri 12:19:00 PM 41.0070 -43.7293 249° West  Level FlightAware Approximate
Fri 12:20:00 PM 40.9482 -43.9336 249° West  Level FlightAware Approximate
Fri 12:21:00 PM 40.8891 -44.1376 249° West  Level FlightAware Approximate
Fri 12:22:00 PM 40.8301 -44.3415 249° West  Level FlightAware Approximate
Fri 12:23:00 PM 41.7564 -40.9750 251° West 466 536 31,000  Level FlightAware Transoceanic
Fri 12:24:00 PM 41.7150 -41.1368 251° West 466 536 31,000  Level FlightAware Transoceanic
Fri 12:24:13 PM 41.7500 -41.0333 251° West 471 542 31,000  Level New York Oceanic (ODAPS)
Fri 12:25:00 PM 41.6733 -41.2984 251° West 466 536 31,000  Level FlightAware Transoceanic
Fri 12:26:00 PM 41.6315 -41.4597 251° West 466 536 31,000  Level FlightAware Transoceanic
Fri 12:27:00 PM 41.5894 -41.6209 251° West 466 536 31,000  Level FlightAware Transoceanic
Fri 12:28:00 PM 41.5471 -41.7818 251° West 466 536 31,000  Level FlightAware Transoceanic
Fri 12:29:00 PM 41.5046 -41.9426 250° West 466 536 31,000  Level FlightAware Transoceanic
Fri 12:30:00 PM 41.4893 -42.0287 250° West 471 542 31,000  Level FlightAware Transoceanic
Fri 12:31:00 PM 41.4450 -42.1939 250° West 471 542 31,000  Level FlightAware Transoceanic
Fri 12:32:00 PM 41.4005 -42.3587 250° West 471 542 31,000  Level FlightAware Transoceanic
Fri 12:33:00 PM 41.3557 -42.5234 250° West 471 542 31,000  Level FlightAware Transoceanic
Fri 12:34:00 PM 41.3107 -42.6878 250° West 471 542 31,000  Level FlightAware Transoceanic
Fri 12:35:00 PM 41.2655 -42.8520 250° West 471 542 31,000  Level FlightAware Transoceanic
Fri 12:36:00 PM 41.2201 -43.0160 250° West 471 542 31,000  Level FlightAware Transoceanic
Fri 12:37:00 PM 41.1744 -43.1798 250° West 471 542 31,000 1,579 Level FlightAware Transoceanic
Fri 12:37:54 PM 41.2000 -43.0833 250° West 457 526 34,000  Climbing New York Oceanic (ODAPS)
Fri 12:38:00 PM 41.1284 -43.3433 249° West 471 542 31,000 -2,727 Descending FlightAware Transoceanic
Fri 12:39:00 PM 41.0823 -43.5066 249° West 471 542 31,000  Level FlightAware Transoceanic
Fri 12:40:00 PM 41.0359 -43.6697 249° West 471 542 31,000  Level FlightAware Transoceanic
Fri 12:41:00 PM 40.9893 -43.8325 249° West 471 542 31,000  Level FlightAware Transoceanic
Fri 12:42:00 PM 40.9425 -43.9951 249° West 471 542 31,000  Level FlightAware Transoceanic
Fri 12:43:00 PM 40.8954 -44.1575 249° West 471 542 31,000 1,500 Level FlightAware Transoceanic
Fri 12:44:00 PM 40.9309 -44.0313 249° West 457 526 34,000 1,500 Climbing FlightAware Transoceanic
Fri 12:45:00 PM 40.8853 -44.1885 249° West 457 526 34,000  Level FlightAware Transoceanic
Fri 12:46:00 PM 40.8394 -44.3455 249° West 457 526 34,000  Level FlightAware Transoceanic
Fri 12:47:00 PM 40.7934 -44.5023 249° West 457 526 34,000  Level FlightAware Transoceanic
Fri 12:48:00 PM 40.7472 -44.6589 249° West 457 526 34,000  Level FlightAware Transoceanic
Fri 12:49:00 PM 40.7007 -44.8153 249° West 457 526 34,000  Level FlightAware Transoceanic
Fri 12:50:00 PM 40.6540 -44.9714 248° West 457 526 34,000  Level FlightAware Transoceanic
Fri 12:51:00 PM 40.6072 -45.1273 248° West 457 526 34,000  Level FlightAware Transoceanic
Fri 12:51:44 PM 40.6000 -45.1167 248° West 469 540 34,000  Level New York Oceanic (ODAPS)
Fri 12:52:00 PM 40.5601 -45.2830 248° West 457 526 34,000  Level FlightAware Transoceanic
Fri 12:53:00 PM 40.5128 -45.4385 248° West 457 526 34,000  Level FlightAware Transoceanic
Fri 12:54:00 PM 40.4653 -45.5938 248° West 457 526 34,000  Level FlightAware Transoceanic
Fri 12:55:00 PM 40.4175 -45.7488 248° West 457 526 34,000  Level FlightAware Transoceanic
Fri 12:56:00 PM 40.3696 -45.9037 248° West 457 526 34,000  Level FlightAware Transoceanic
Fri 12:57:00 PM 40.3215 -46.0583 248° West 457 526 34,000  Level FlightAware Transoceanic
Fri 12:58:00 PM 40.3065 -46.0795 248° West 469 540 34,000  Level FlightAware Transoceanic
Fri 12:59:00 PM 40.2568 -46.2392 248° West 469 540 34,000  Level FlightAware Transoceanic
Fri 01:00:00 PM 40.2069 -46.3986 248° West 469 540 34,000  Level FlightAware Transoceanic
Fri 01:01:00 PM 40.1567 -46.5578 248° West 469 540 34,000  Level FlightAware Transoceanic
Fri 01:02:00 PM 40.1064 -46.7167 247° West 469 540 34,000  Level FlightAware Transoceanic
Fri 01:03:00 PM 40.0558 -46.8755 247° West 469 540 34,000  Level FlightAware Transoceanic
Fri 01:04:00 PM 40.0050 -47.0339 247° West 469 540 34,000  Level FlightAware Transoceanic
Fri 01:05:00 PM 39.9540 -47.1922 247° West 469 540 34,000  Level FlightAware Transoceanic
Fri 01:05:37 PM 39.9333 -47.2833 247° West 493 567 34,000  Level New York Oceanic (ODAPS)
Fri 01:06:00 PM 39.9028 -47.3502 247° West 469 540 34,000  Level FlightAware Transoceanic
Fri 01:07:00 PM 39.8514 -47.5080 247° West 469 540 34,000  Level FlightAware Transoceanic
Fri 01:08:00 PM 39.7997 -47.6655 247° West 469 540 34,000  Level FlightAware Transoceanic
Fri 01:09:00 PM 39.7479 -47.8228 247° West 469 540 34,000  Level FlightAware Transoceanic
Fri 01:10:00 PM 39.6958 -47.9799 247° West 469 540 34,000  Level FlightAware Transoceanic
Fri 01:11:00 PM 39.6436 -48.1367 247° West 469 540 34,000  Level FlightAware Transoceanic
Fri 01:12:00 PM 39.5567 -48.4108 246° West 493 567 34,000  Level FlightAware Transoceanic
Fri 01:13:00 PM 39.5020 -48.5708 246° West 493 567 34,000  Level FlightAware Transoceanic
Fri 01:14:00 PM 39.4471 -48.7307 246° West 493 567 34,000  Level FlightAware Transoceanic
Fri 01:15:00 PM 39.3920 -48.8902 246° West 493 567 34,000  Level FlightAware Transoceanic
Fri 01:16:00 PM 39.3366 -49.0495 246° West 493 567 34,000  Level FlightAware Transoceanic
Fri 01:17:00 PM 39.2810 -49.2085 246° West 493 567 34,000  Level FlightAware Transoceanic
Fri 01:18:00 PM 39.2253 -49.3674 246° West 493 567 34,000  Level FlightAware Transoceanic
Fri 01:19:00 PM 39.1693 -49.5259 245° Southwest 493 567 34,000  Level FlightAware Transoceanic
Fri 01:19:28 PM 39.1500 -49.5833 245° Southwest 496 571 34,000  Level New York Oceanic (ODAPS)
Fri 01:20:00 PM 39.1131 -49.6842 245° Southwest 493 567 34,000  Level FlightAware Transoceanic
Fri 01:21:00 PM 39.0566 -49.8422 245° Southwest 493 567 34,000  Level FlightAware Transoceanic
Fri 01:22:00 PM 39.0000 -50.0000 234° Southwest 493 567 34,000  Level FlightAware Transoceanic
Fri 01:22:02 PM 39.0000 -50.0000 234° Southwest 501 577 34,000  Level New York Oceanic (ODAPS)
Fri 01:23:00 PM 38.9173 -50.1485 234° Southwest 493 567 34,000  Level FlightAware Transoceanic
Fri 01:24:00 PM 38.8344 -50.2967 234° Southwest 493 567 34,000  Level FlightAware Transoceanic
Fri 01:25:00 PM 38.7513 -50.4446 234° Southwest 496 571 34,000  Level FlightAware Transoceanic
Fri 01:26:00 PM 38.6681 -50.5921 234° Southwest 496 571 34,000  Level FlightAware Transoceanic
Fri 01:27:00 PM 38.5846 -50.7393 234° Southwest 496 571 34,000  Level FlightAware Transoceanic
Fri 01:28:00 PM 38.5149 -50.8616 234° Southwest 501 577 34,000  Level FlightAware Transoceanic
Fri 01:29:00 PM 38.4335 -51.0041 234° Southwest 501 577 34,000  Level FlightAware Transoceanic
Fri 01:30:00 PM 38.3519 -51.1462 234° Southwest 501 577 34,000  Level FlightAware Transoceanic
Fri 01:31:00 PM 38.2701 -51.2881 234° Southwest 501 577 34,000  Level FlightAware Transoceanic
Fri 01:32:00 PM 38.1881 -51.4296 234° Southwest 501 577 34,000  Level FlightAware Transoceanic
Fri 01:33:00 PM 38.1060 -51.5708 233° Southwest 501 577 34,000  Level FlightAware Transoceanic
Fri 01:33:20 PM 38.0500 -51.6667 233° Southwest 506 582 34,000  Level New York Oceanic (ODAPS)
Fri 01:34:00 PM 38.0237 -51.7116 233° Southwest 501 577 34,000  Level FlightAware Transoceanic
Fri 01:35:00 PM 37.9412 -51.8522 233° Southwest 501 577 34,000  Level FlightAware Transoceanic
Fri 01:36:00 PM 37.8586 -51.9924 233° Southwest 501 577 34,000  Level FlightAware Transoceanic
Fri 01:37:00 PM 37.7757 -52.1324 233° Southwest 501 577 34,000  Level FlightAware Transoceanic
Fri 01:38:00 PM 37.6928 -52.2720 233° Southwest 501 577 34,000  Level FlightAware Transoceanic
Fri 01:39:00 PM 37.5463 -52.5170 233° Southwest 506 582 34,000  Level FlightAware Transoceanic
Fri 01:40:00 PM 37.4618 -52.6576 233° Southwest 506 582 34,000  Level FlightAware Transoceanic
Fri 01:41:00 PM 37.3771 -52.7979 233° Southwest 506 582 34,000  Level FlightAware Transoceanic
Fri 01:42:00 PM 37.2922 -52.9378 233° Southwest 506 582 34,000  Level FlightAware Transoceanic
Fri 01:43:00 PM 37.2072 -53.0775 233° Southwest 506 582 34,000  Level FlightAware Transoceanic
Fri 01:44:00 PM 37.1220 -53.2168 232° Southwest 506 582 34,000  Level FlightAware Transoceanic
Fri 01:45:00 PM 37.0367 -53.3558 232° Southwest 506 582 34,000  Level FlightAware Transoceanic
Fri 01:46:00 PM 36.9511 -53.4945 232° Southwest 506 582 34,000  Level FlightAware Transoceanic
Fri 01:47:00 PM 36.8655 -53.6329 232° Southwest 506 582 34,000  Level FlightAware Transoceanic
Fri 01:47:13 PM 36.8667 -53.6333 232° Southwest 503 579 34,000  Level New York Oceanic (ODAPS)
Fri 01:48:00 PM 36.7796 -53.7710 232° Southwest 506 582 34,000  Level FlightAware Transoceanic
Fri 01:49:00 PM 36.6936 -53.9088 232° Southwest 506 582 34,000  Level FlightAware Transoceanic
Fri 01:50:00 PM 36.6075 -54.0463 232° Southwest 506 582 34,000  Level FlightAware Transoceanic
Fri 01:51:00 PM 36.5211 -54.1834 232° Southwest 506 582 34,000  Level FlightAware Transoceanic
Fri 01:52:00 PM 36.4347 -54.3203 232° Southwest 506 582 34,000  Level FlightAware Transoceanic
Fri 01:53:00 PM 36.3485 -54.4570 232° Southwest 503 579 34,000  Level FlightAware Transoceanic
Fri 01:54:00 PM 36.2616 -54.5932 232° Southwest 503 579 34,000  Level FlightAware Transoceanic
Fri 01:55:00 PM 36.1746 -54.7291 232° Southwest 503 579 34,000  Level FlightAware Transoceanic
Fri 01:56:00 PM 36.0874 -54.8647 231° Southwest 503 579 34,000  Level FlightAware Transoceanic
Fri 01:57:00 PM 36.0000 -55.0000 245° Southwest 503 579 34,000  Level FlightAware Transoceanic
Fri 01:57:14 PM 36.0000 -55.0000 245° Southwest 481 554 34,000  Level New York Oceanic (ODAPS)
Fri 01:58:00 PM 35.9442 -55.1506 245° Southwest 503 579 34,000  Level FlightAware Transoceanic
Fri 01:59:00 PM 35.8881 -55.3009 245° Southwest 503 579 34,000  Level FlightAware Transoceanic
Fri 02:00:00 PM 35.8319 -55.4510 245° Southwest 503 579 34,000  Level FlightAware Transoceanic
Fri 02:01:00 PM 35.7755 -55.6010 245° Southwest 503 579 34,000  Level FlightAware Transoceanic
Fri 02:01:04 PM 35.7833 -55.5833 245° Southwest 478 550 34,000  Level New York Oceanic (ODAPS)
Fri 02:02:00 PM 35.7189 -55.7507 245° Southwest 503 579 34,000  Level FlightAware Transoceanic
Fri 02:03:00 PM 35.6622 -55.9002 245° Southwest 481 554 34,000  Level FlightAware Transoceanic
Fri 02:04:00 PM 35.6052 -56.0494 245° Southwest 481 554 34,000  Level FlightAware Transoceanic
Fri 02:05:00 PM 35.5481 -56.1985 245° Southwest 481 554 34,000  Level FlightAware Transoceanic
Fri 02:06:00 PM 35.4907 -56.3474 245° Southwest 481 554 34,000  Level FlightAware Transoceanic
Fri 02:07:00 PM 35.4396 -56.4820 245° Southwest 478 550 34,000  Level FlightAware Transoceanic
Fri 02:08:00 PM 35.3816 -56.6311 244° Southwest 478 550 34,000  Level FlightAware Transoceanic
Fri 02:09:00 PM 35.3235 -56.7799 244° Southwest 478 550 34,000  Level FlightAware Transoceanic
Fri 02:10:00 PM 35.2652 -56.9285 244° Southwest 478 550 34,000  Level FlightAware Transoceanic
Fri 02:11:00 PM 35.2067 -57.0769 244° Southwest 478 550 34,000  Level FlightAware Transoceanic
Fri 02:12:00 PM 35.1481 -57.2251 244° Southwest 478 550 34,000  Level FlightAware Transoceanic
Fri 02:13:00 PM 35.0892 -57.3730 244° Southwest 478 550 34,000  Level FlightAware Transoceanic
Fri 02:14:00 PM 35.0302 -57.5208 244° Southwest 478 550 34,000  Level FlightAware Transoceanic
Fri 02:14:56 PM 35.0000 -57.6167 244° Southwest 475 547 34,000  Level New York Oceanic (ODAPS)
Fri 02:15:00 PM 34.9710 -57.6683 244° Southwest 478 550 34,000  Level FlightAware Transoceanic
Fri 02:16:00 PM 34.9116 -57.8157 244° Southwest 478 550 34,000  Level FlightAware Transoceanic
Fri 02:17:00 PM 34.8521 -57.9628 244° Southwest 478 550 34,000  Level FlightAware Transoceanic
Fri 02:18:00 PM 34.7924 -58.1097 244° Southwest 478 550 34,000  Level FlightAware Transoceanic
Fri 02:19:00 PM 34.7324 -58.2563 244° Southwest 478 550 34,000  Level FlightAware Transoceanic
Fri 02:20:00 PM 34.6724 -58.4028 243° Southwest 478 550 34,000  Level FlightAware Transoceanic
Fri 02:21:00 PM 34.6524 -58.4644 243° Southwest 475 547 34,000  Level FlightAware Transoceanic
Fri 02:22:00 PM 34.5938 -58.6050 243° Southwest 475 547 34,000  Level FlightAware Transoceanic
Fri 02:23:00 PM 34.5352 -58.7454 243° Southwest 475 547 34,000  Level FlightAware Transoceanic
Fri 02:24:00 PM 34.4763 -58.8856 243° Southwest 475 547 34,000  Level FlightAware Transoceanic
Fri 02:25:00 PM 34.4174 -59.0256 243° Southwest 475 547 34,000  Level FlightAware Transoceanic
Fri 02:26:00 PM 34.3582 -59.1654 243° Southwest 475 547 34,000  Level FlightAware Transoceanic
Fri 02:27:00 PM 34.2989 -59.3050 243° Southwest 475 547 34,000  Level FlightAware Transoceanic
Fri 02:28:00 PM 34.2394 -59.4444 243° Southwest 475 547 34,000  Level FlightAware Transoceanic
Fri 02:28:50 PM 34.1667 -59.6000 243° Southwest 473 544 34,000  Level New York Oceanic (ODAPS)
Fri 02:29:00 PM 34.1798 -59.5836 243° Southwest 475 547 34,000  Level FlightAware Transoceanic
Fri 02:30:00 PM 34.1200 -59.7226 243° Southwest 475 547 34,000  Level FlightAware Transoceanic
Fri 02:31:00 PM 34.0601 -59.8614 242° Southwest 475 547 34,000  Level FlightAware Transoceanic
Fri 02:31:42 PM 34.0000 -60.0000 252° West 476 548 34,000  Level New York Oceanic (ODAPS)
Fri 02:32:00 PM 34.0000 -60.0000 252° West 475 547 34,000  Level FlightAware Transoceanic
Fri 02:33:00 PM 33.9591 -60.1490 252° West 475 547 34,000  Level FlightAware Transoceanic
Fri 02:34:00 PM 33.9181 -60.2978 252° West 475 547 34,000  Level FlightAware Transoceanic
Fri 02:35:00 PM 33.8769 -60.4465 251° West 473 544 34,000  Level FlightAware Transoceanic
Fri 02:36:00 PM 33.8355 -60.5951 251° West 473 544 34,000  Level FlightAware Transoceanic
Fri 02:37:00 PM 33.7939 -60.7435 251° West 473 544 34,000  Level FlightAware Transoceanic
Fri 02:38:00 PM 33.7242 -60.9905 251° West 476 548 34,000  Level FlightAware Transoceanic
Fri 02:39:00 PM 33.6775 -61.1549 251° West 476 548 34,000  Level FlightAware Transoceanic
Fri 02:39:11 PM 33.6833 -61.1500 242° Southwest 473 544 34,000  Level New York Center
Fri 02:40:00 PM 33.6305 -61.3192 251° West 476 548 34,000  Level FlightAware Transoceanic
Fri 02:40:11 PM 33.6433 -61.2992 252° West 485 558 34,000  Level New York Center
Fri 02:41:00 PM 33.5833 -61.4833 242° Southwest 476 548 34,000  Level FlightAware Transoceanic
Fri 02:41:11 PM 33.6039 -61.4333 251° West 480 552 34,000  Level New York Center
Fri 02:42:00 PM 33.5222 -61.6235 242° Southwest 476 548 34,000  Level FlightAware Transoceanic
Fri 02:42:11 PM 33.5456 -61.5942 247° West 480 552 34,000  Level New York Center
Fri 02:43:00 PM 33.4609 -61.7635 242° Southwest 476 548 34,000  Level FlightAware Transoceanic
Fri 02:43:11 PM 33.4997 -61.7311 248° West 491 565 34,000  Level New York Center
Fri 02:44:11 PM 33.4344 -61.8850 243° Southwest 491 565 34,000  Level New York Center
Fri 02:45:11 PM 33.3697 -62.0236 241° Southwest 491 565 34,000  Level New York Center
Fri 02:46:11 PM 33.3147 -62.1561 244° Southwest 491 565 34,000  Level New York Center
Fri 02:47:11 PM 33.2467 -62.3094 242° Southwest 491 565 34,000  Level New York Center
Fri 02:48:11 PM 33.1836 -62.4522 242° Southwest 491 565 34,000  Level New York Center
Fri 02:49:11 PM 33.1258 -62.5769 241° Southwest 486 559 34,000  Level New York Center
Fri 02:50:11 PM 33.0589 -62.7269 242° Southwest 486 559 34,000  Level New York Center
Fri 02:51:11 PM 32.9986 -62.8539 241° Southwest 486 559 34,000  Level New York Center
Fri 02:52:11 PM 32.9272 -63.0039 240° Southwest 486 559 34,000  Level New York Center
Fri 02:53:11 PM 32.8678 -63.1478 244° Southwest 486 559 34,000  Level New York Center
Fri 02:54:11 PM 32.8108 -63.2689 241° Southwest 486 559 34,000  Level New York Center
Fri 02:55:11 PM 32.7372 -63.4208 240° Southwest 491 565 34,000  Level New York Center
Fri 02:56:11 PM 32.6747 -63.5594 242° Southwest 486 559 34,000  Level New York Center
Fri 02:57:11 PM 32.6178 -63.6847 242° Southwest 491 565 34,000  Level New York Center
Fri 02:58:11 PM 32.5475 -63.8358 241° Southwest 491 565 34,000  Level New York Center
Fri 02:59:11 PM 32.4858 -63.9614 240° Southwest 491 565 34,000  Level New York Center
Fri 03:00:11 PM 32.4156 -64.1144 241° Southwest 486 559 34,000  Level New York Center
Fri 03:01:11 PM 32.3519 -64.2469 240° Southwest 486 559 34,000  Level New York Center
Fri 03:02:11 PM 32.2942 -64.3714 241° Southwest 486 559 34,000  Level New York Center
Fri 03:03:11 PM 32.2189 -64.5242 240° Southwest 486 559 34,000  Level New York Center
Fri 03:04:12 PM 32.1533 -64.6636 241° Southwest 486 559 34,000  Level New York Center
Fri 03:05:11 PM 32.0950 -64.7875 241° Southwest 486 559 34,000  Level New York Center
Fri 03:06:12 PM 32.0233 -64.9369 241° Southwest 491 565 34,000  Level New York Center
Fri 03:07:11 PM 31.9592 -65.0756 241° Southwest 483 556 34,000  Level New York Center
Fri 03:08:11 PM 31.9003 -65.1992 241° Southwest 483 556 34,000  Level New York Center
Fri 03:09:11 PM 31.8261 -65.3478 240° Southwest 483 556 34,000  Level New York Center
Fri 03:10:11 PM 31.7611 -65.4786 240° Southwest 483 556 34,000  Level New York Center
Fri 03:11:11 PM 31.6922 -65.6192 240° Southwest 483 556 34,000  Level New York Center
Fri 03:12:11 PM 31.6292 -65.7519 241° Southwest 483 556 34,000  Level New York Center
Fri 03:13:11 PM 31.5675 -65.8722 239° Southwest 483 556 34,000  Level New York Center
Fri 03:14:11 PM 31.4922 -66.0197 239° Southwest 483 556 34,000  Level New York Center
Fri 03:15:11 PM 31.4311 -66.1542 242° Southwest 483 556 34,000  Level New York Center
Fri 03:16:11 PM 31.3711 -66.2786 241° Southwest 483 556 34,000  Level New York Center
Fri 03:17:11 PM 31.2975 -66.4256 240° Southwest 477 549 34,000  Level New York Center
Fri 03:18:11 PM 31.2350 -66.5450 239° Southwest 482 555 34,000  Level New York Center
Fri 03:19:11 PM 31.1611 -66.6914 239° Southwest 482 555 34,000  Level New York Center
Fri 03:20:11 PM 31.0906 -66.8203 237° Southwest 482 555 34,000  Level New York Center
Fri 03:21:11 PM 31.0319 -66.9414 241° Southwest 482 555 34,000  Level New York Center
Fri 03:22:11 PM 30.9575 -67.0869 239° Southwest 482 555 34,000  Level New York Center
Fri 03:23:11 PM 30.8886 -67.2203 239° Southwest 488 562 34,000  Level New York Center
Fri 03:24:11 PM 30.8253 -67.3361 238° Southwest 477 549 34,000 63 Level New York Center
Fri 03:26:00 PM 30.7049 -67.5585 235° Southwest  Level FlightAware Approximate
Fri 03:33:00 PM 30.2538 -68.4196 238° Southwest  Level FlightAware Approximate
Fri 03:34:00 PM 30.1882 -68.5417 238° Southwest  Level FlightAware Approximate
Fri 03:35:00 PM 30.1225 -68.6637 238° Southwest  Level FlightAware Approximate
Fri 03:36:00 PM 30.0567 -68.7856 238° Southwest  Level FlightAware Approximate
Fri 03:37:00 PM 29.9908 -68.9072 238° Southwest  Level FlightAware Approximate
Fri 03:38:00 PM 29.9247 -69.0287 238° Southwest  Level FlightAware Approximate
Fri 03:39:00 PM 29.8586 -69.1500 238° Southwest  Level FlightAware Approximate
Fri 03:39:11 PM 29.8000 -69.3333 238° Southwest 479 551 35,000  Level New York Oceanic (ODAPS)
Fri 03:40:00 PM 29.7923 -69.2712 238° Southwest  Level FlightAware Approximate
Fri 03:41:00 PM 29.7430 -69.4025 247° West  Level FlightAware Approximate
Fri 03:42:00 PM 29.6898 -69.5351 237° Southwest  Level FlightAware Approximate
Fri 03:43:00 PM 29.6227 -69.6554 237° Southwest  Level FlightAware Approximate
Fri 03:44:00 PM 29.5556 -69.7755 237° Southwest  Level FlightAware Approximate
Fri 03:45:00 PM 29.3792 -70.0958 237° Southwest 479 551 35,000  Level FlightAware Transoceanic
Fri 03:46:00 PM 29.3087 -70.2222 237° Southwest 479 551 35,000  Level FlightAware Transoceanic
Fri 03:47:00 PM 29.2380 -70.3485 237° Southwest 479 551 35,000  Level FlightAware Transoceanic
Fri 03:48:00 PM 29.1672 -70.4746 237° Southwest 479 551 35,000  Level FlightAware Transoceanic
Fri 03:49:00 PM 29.0963 -70.6005 237° Southwest 479 551 35,000  Level FlightAware Transoceanic
Fri 03:50:00 PM 29.0253 -70.7263 237° Southwest 479 551 35,000  Level FlightAware Transoceanic
Fri 03:51:00 PM 28.9541 -70.8519 237° Southwest 479 551 35,000  Level FlightAware Transoceanic
Fri 03:52:00 PM 28.8829 -70.9773 237° Southwest 479 551 35,000  Level FlightAware Transoceanic
Fri 03:52:08 PM 28.8833 -71.0000 237° Southwest 472 543 35,000  Level New York Oceanic (ODAPS)
Fri 03:53:00 PM 28.8115 -71.1026 237° Southwest 479 551 35,000  Level FlightAware Transoceanic
Fri 03:53:05 PM 28.8167 -71.1167 237° Southwest 462 532 35,000  Level New York Oceanic (ODAPS)
Fri 03:54:00 PM 28.7400 -71.2276 237° Southwest 479 551 35,000  Level FlightAware Transoceanic
Fri 03:55:00 PM 28.6684 -71.3525 237° Southwest 479 551 35,000  Level FlightAware Transoceanic
Fri 03:56:00 PM 28.5967 -71.4772 237° Southwest 479 551 35,000  Level FlightAware Transoceanic
Fri 03:57:00 PM 28.5248 -71.6018 237° Southwest 479 551 35,000  Level FlightAware Transoceanic
Fri 03:58:00 PM 28.4532 -71.7438 236° Southwest 472 543 35,000  Level FlightAware Transoceanic
Fri 03:59:00 PM 28.3848 -71.8613 236° Southwest 462 532 35,000  Level FlightAware Transoceanic
Fri 03:59:46 PM 28.3167 -71.9167 237° Southwest 468 539 35,000  Level New York Oceanic (ODAPS)
Fri 04:00:00 PM 28.3124 -71.9848 236° Southwest 462 532 35,000  Level FlightAware Transoceanic
Fri 04:01:00 PM 28.2399 -72.1081 236° Southwest 462 532 35,000  Level FlightAware Transoceanic
Fri 04:02:00 PM 28.1673 -72.2313 236° Southwest 462 532 35,000  Level FlightAware Transoceanic
Fri 04:03:00 PM 28.0946 -72.3543 236° Southwest 462 532 35,000  Level FlightAware Transoceanic
Fri 04:04:00 PM 28.0218 -72.4771 236° Southwest 462 532 35,000  Level FlightAware Transoceanic
Fri 04:05:00 PM 27.9488 -72.5998 236° Southwest 462 532 35,000  Level FlightAware Transoceanic
Fri 04:06:00 PM 27.8790 -72.6759 237° Southwest 468 539 35,000  Level FlightAware Transoceanic
Fri 04:06:56 PM 27.8000 -72.8000 237° Southwest 468 539 35,000  Level New York Oceanic (ODAPS)
Fri 04:07:00 PM 27.8056 -72.8018 237° Southwest 468 539 35,000  Level FlightAware Transoceanic
Fri 04:08:00 PM 27.7322 -72.9276 237° Southwest 468 539 35,000  Level FlightAware Transoceanic
Fri 04:09:00 PM 27.6586 -73.0532 236° Southwest 468 539 35,000  Level FlightAware Transoceanic
Fri 04:10:00 PM 27.5849 -73.1786 236° Southwest 468 539 35,000  Level FlightAware Transoceanic
Fri 04:11:00 PM 27.5111 -73.3039 236° Southwest 468 539 35,000  Level FlightAware Transoceanic
Fri 04:12:00 PM 27.4372 -73.4290 236° Southwest 468 539 35,000  Level FlightAware Transoceanic
Fri 04:13:00 PM 27.3603 -73.5530 236° Southwest 468 539 35,000  Level FlightAware Transoceanic
Fri 04:14:00 PM 27.2867 -73.6779 236° Southwest 468 539 35,000  Level FlightAware Transoceanic
Fri 04:15:00 PM 27.2129 -73.8027 236° Southwest 468 539 35,000  Level FlightAware Transoceanic
Fri 04:16:00 PM 27.1390 -73.9272 236° Southwest 468 539 35,000  Level FlightAware Transoceanic
Fri 04:17:00 PM 27.0650 -74.0517 236° Southwest 468 539 35,000  Level FlightAware Transoceanic
Fri 04:17:22 PM 27.0375 -74.0808 237° Southwest 459 528 35,000  Level Miami Center
Fri 04:18:00 PM 26.9909 -74.1759 236° Southwest 468 539 35,000  Level FlightAware Transoceanic
Fri 04:18:22 PM 26.9708 -74.1989 238° Southwest 459 528 35,000  Level Miami Center
Fri 04:19:00 PM 26.9167 -74.3000 237° Southwest 468 539 35,000  Level FlightAware Transoceanic
Fri 04:19:22 PM 26.8914 -74.3172 233° Southwest 467 537 35,000  Level Miami Center
Fri 04:20:00 PM 26.8487 -74.4156 237° Southwest 468 539 35,000  Level FlightAware Transoceanic
Fri 04:20:22 PM 26.8244 -74.4397 239° Southwest 472 543 35,000  Level Miami Center
Fri 04:21:00 PM 26.7807 -74.5311 237° Southwest 468 539 35,000  Level FlightAware Transoceanic
Fri 04:21:22 PM 26.7578 -74.5667 240° Southwest 472 543 35,000  Level Miami Center
Fri 04:22:00 PM 26.7126 -74.6464 237° Southwest 468 539 35,000  Level FlightAware Transoceanic
Fri 04:22:22 PM 26.6950 -74.6958 241° Southwest 472 543 35,000  Level Miami Center
Fri 04:23:22 PM 26.6256 -74.8156 237° Southwest 472 543 35,000  Level Miami Center
Fri 04:24:22 PM 26.5689 -74.9467 244° Southwest 477 549 35,000  Level Miami Center
Fri 04:25:22 PM 26.4975 -75.0686 237° Southwest 472 543 35,000  Level Miami Center
Fri 04:26:22 PM 26.4278 -75.1925 238° Southwest 472 543 35,000 -250 Level Miami Center
Fri 04:27:22 PM 26.3644 -75.3186 241° Southwest 472 543 34,500 -500 Descending Miami Center
Fri 04:28:22 PM 26.3031 -75.4494 242° Southwest 472 543 34,000 -250 Descending Miami Center
Fri 04:29:22 PM 26.2289 -75.5683 235° Southwest 472 543 34,000  Level Miami Center
Fri 04:30:22 PM 26.1611 -75.6964 239° Southwest 479 551 34,000  Level Miami Center
Fri 04:31:22 PM 26.0953 -75.8219 240° Southwest 479 551 34,000  Level Miami Center
Fri 04:32:22 PM 26.0272 -75.9475 239° Southwest 479 551 34,000  Level Miami Center
Fri 04:33:22 PM 25.9631 -76.0753 241° Southwest 479 551 34,000  Level Miami Center
Fri 04:34:22 PM 25.8928 -76.1981 238° Southwest 479 551 34,000  Level Miami Center
Fri 04:35:22 PM 25.8264 -76.3253 240° Southwest 479 551 34,000  Level Miami Center
Fri 04:36:22 PM 25.7600 -76.4503 239° Southwest 479 551 34,000  Level Miami Center
Fri 04:37:22 PM 25.6892 -76.5728 237° Southwest 479 551 34,000  Level Miami Center
Fri 04:38:22 PM 25.6225 -76.6997 240° Southwest 479 551 34,000  Level Miami Center
Fri 04:39:22 PM 25.5556 -76.8219 239° Southwest 479 551 34,000  Level Miami Center
Fri 04:40:22 PM 25.4867 -76.9461 238° Southwest 479 551 34,000  Level Miami Center
Fri 04:41:22 PM 25.4197 -77.0681 239° Southwest 479 551 34,000  Level Miami Center
Fri 04:42:22 PM 25.3525 -77.1922 239° Southwest 479 551 34,000  Level Miami Center
Fri 04:43:22 PM 25.2853 -77.3161 239° Southwest 474 545 34,000  Level Miami Center
Fri 04:44:22 PM 25.2203 -77.4378 239° Southwest 474 545 34,000  Level Miami Center
Fri 04:45:22 PM 25.1444 -77.5797 239° Southwest 474 545 34,000  Level Miami Center
Fri 04:46:22 PM 25.0728 -77.7008 237° Southwest 480 552 34,000  Level Miami Center
Fri 04:47:22 PM 25.0031 -77.8219 238° Southwest 480 552 34,000  Level Miami Center
Fri 04:48:22 PM 24.9353 -77.9450 239° Southwest 480 552 34,000  Level Miami Center
Fri 04:49:22 PM 24.8675 -78.0658 238° Southwest 480 552 34,000  Level Miami Center
Fri 04:50:22 PM 24.7994 -78.1867 238° Southwest 480 552 34,000  Level Miami Center
Fri 04:51:22 PM 24.7294 -78.3072 237° Southwest 474 545 34,000  Level Miami Center
Fri 04:52:22 PM 24.6633 -78.4253 238° Southwest 474 545 34,000  Level Miami Center
Fri 04:53:22 PM 24.5953 -78.5456 238° Southwest 474 545 34,000  Level Miami Center
Fri 04:54:22 PM 24.5228 -78.6656 236° Southwest 474 545 34,000  Level Miami Center
Fri 04:55:22 PM 24.4586 -78.7856 240° Southwest 474 545 34,000  Level Miami Center
Fri 04:56:22 PM 24.3922 -78.9056 239° Southwest 474 545 34,000  Level Miami Center
Fri 04:57:22 PM 24.3217 -79.0208 236° Southwest 474 545 34,000  Level Miami Center
Fri 04:58:22 PM 24.2508 -79.1403 237° Southwest 474 545 34,000  Level Miami Center
Fri 04:59:22 PM 24.1864 -79.2575 239° Southwest 468 539 34,000  Level Miami Center
Fri 05:00:22 PM 24.1219 -79.3700 238° Southwest 456 525 34,000  Level Miami Center
Fri 05:01:22 PM 24.0553 -79.4847 238° Southwest 449 517 34,000  Level Miami Center
Fri 05:02:22 PM 24.0069 -79.6111 247° West 449 517 34,000  Level Miami Center
Fri 05:04:00 PM 23.8866 -79.7915 241° Southwest  Level FlightAware Approximate
Fri 05:11:00 PM 23.4530 -80.6159 243° Southwest  Level FlightAware Approximate
Fri 05:12:00 PM 23.3970 -80.7370 243° Southwest  Level FlightAware Approximate
Fri 05:13:00 PM 23.3347 -80.8543 239° Southwest  Level FlightAware Approximate
Fri 05:14:00 PM 23.2703 -80.9702 239° Southwest  Level FlightAware Approximate
Fri 05:15:00 PM 23.2064 -81.0864 241° Southwest  Level FlightAware Approximate
Fri 05:16:00 PM 23.1451 -81.2042 241° Southwest  Level FlightAware Approximate
Fri 05:17:00 PM 23.0837 -81.3219 240° Southwest  Level FlightAware Approximate
Fri 05:18:00 PM 23.0222 -81.4394 240° Southwest  Level FlightAware Approximate
Fri 05:19:00 PM 23.0116 -81.5728 264° West  Level FlightAware Approximate
Fri 05:20:00 PM 23.0000 -81.7073 270° West  Level FlightAware Approximate
Fri 05:21:00 PM 23.0000 -81.8425 270° West  Level FlightAware Approximate
Fri 05:22:00 PM 22.9960 -81.9775 264° West  Level FlightAware Approximate
Fri 05:23:00 PM 22.9838 -82.1120 264° West  Level FlightAware Approximate
Fri 05:24:00 PM 22.9833 -82.2472 270° West  Level FlightAware Approximate
Fri 05:25:00 PM 22.9698 -82.3810 260° West  Level FlightAware Approximate
Fri 05:26:00 PM 22.9667 -82.4000 260° West  Level FlightAware Approximate
Fri 05:27:00 PM 22.9891 -82.4091 260° West  Level Estimated
Fri 05:28:00 PM 22.9891 -82.4091 260° West  Level Estimated
Fri 05:29:00 PM 22.9891 -82.4091 260° West  Level Estimated
Fri 05:30:00 PM 22.9891 -82.4091 260° West  Level Estimated
Fri 05:31:00 PM 22.9891 -82.4091 260° West  Level Estimated
Fri 05:32:00 PM 22.9891 -82.4091 260° West  Level Estimated
Fri 05:33:00 PM 22.9891 -82.4091 260° West  Level Estimated
Fri 05:34:00 PM 22.9891 -82.4091 260° West  Level Estimated
Fri 05:35:00 PM 22.9891 -82.4091 260° West  Level Estimated
Fri 05:36:00 PM 22.9891 -82.4091 260° West  Level Estimated
Fri 05:37:00 PM 22.9891 -82.4091 260° West  Level Estimated
Fri 05:38:00 PM 22.9891 -82.4091 260° West  Level Estimated
Fri 05:39:00 PM 22.9891 -82.4091 260° West  Level Estimated
Fri 05:40:00 PM 22.9891 -82.4091 260° West  Level Estimated
Fri 05:41:00 PM 22.9891 -82.4091 260° West  Level Estimated
Fri 05:42:00 PM 22.9891 -82.4091 260° West  Level Estimated
Fri 05:43:00 PM 22.9891 -82.4091 260° West  Level Estimated
Fri 05:44:00 PM 22.9891 -82.4091 260° West  Level Estimated
Fri 05:45:00 PM 22.9891 -82.4091 260° West  Level Estimated
Fri 05:46:00 PM 22.9891 -82.4091 260° West  Level Estimated
Fri 05:47:00 PM 22.9891 -82.4091 260° West  Level Estimated
Fri 05:48:00 PM 22.9891 -82.4091 260° West  Level Estimated

Login

Don't have an account? Register now (free) for customized features, flight alerts, and more!